Time;durP1;ratioP1;P1;durP2;ratioP2;P2;SDS_P1;SDS_P2;PMS_P1;PMS_P2;Temp;Humidity;BMP_temperature;BMP_pressure;BME280_temperature;BME280_humidity;BME280_pressure;Samples;Min_cycle;Max_cycle;Signal;HPM_P1;HPM_P2
2021/11/24 00:01:51;;;;;;;91.97;47.63;;;;;;;;;;4920960;29;20345;-87
2021/11/24 00:04:17;;;;;;;88.88;45.13;;;;;;;;;;4905508;29;20036;-87
2021/11/24 00:06:43;;;;;;;76.60;39.08;;;;;;;;;;4920686;29;20356;-87
2021/11/24 00:09:09;;;;;;;83.20;41.13;;;;;;;;;;4921032;29;20400;-87
2021/11/24 00:11:35;;;;;;;78.10;40.42;;;;;;;;;;4922240;29;20020;-87
2021/11/24 00:14:01;;;;;;;66.13;34.05;;;;;;;;;;4921028;29;20028;-86
2021/11/24 00:16:27;;;;;;;71.70;38.13;;;;;;;;;;4886482;29;20080;-87
2021/11/24 00:18:54;;;;;;;75.60;36.40;;;;;;;;;;4906743;29;20032;-87
2021/11/24 00:21:20;;;;;;;72.38;34.53;;;;;;;;;;4921027;29;20028;-86
2021/11/24 00:23:47;;;;;;;56.33;30.77;;;;;;;;;;4922039;29;20115;-87
2021/11/24 00:26:13;;;;;;;61.63;31.15;;;;;;;;;;4920436;29;20044;-87
2021/11/24 00:28:39;;;;;;;57.50;30.73;;;;;;;;;;4921316;29;20064;-87
2021/11/24 00:31:06;;;;;;;58.20;30.88;;;;;;;;;;4920875;29;20035;-87
2021/11/24 00:33:32;;;;;;;57.55;29.48;;;;;;;;;;4921783;29;20055;-87
2021/11/24 00:36:00;;;;;;;55.67;29.42;;;;;;;;;;4921678;29;20032;-87
2021/11/24 00:38:26;;;;;;;48.13;25.88;;;;;;;;;;4921895;29;20104;-87
2021/11/24 00:40:52;;;;;;;48.67;27.27;;;;;;;;;;4920288;29;20459;-86
2021/11/24 00:43:38;;;;;;;52.35;27.52;;;;;;;;;;4920379;29;20151;-87
2021/11/24 00:46:04;;;;;;;46.90;26.15;;;;;;;;;;4902602;29;20052;-87
2021/11/24 00:48:30;;;;;;;50.38;26.42;;;;;;;;;;4902576;29;20017;-87
2021/11/24 00:50:56;;;;;;;47.90;26.77;;;;;;;;;;4886207;29;20029;-88
2021/11/24 00:53:22;;;;;;;52.00;28.08;;;;;;;;;;4902702;29;20028;-87
2021/11/24 00:55:48;;;;;;;51.97;29.27;;;;;;;;;;4914629;29;20038;-88
2021/11/24 00:58:33;;;;;;;47.85;26.45;;;;;;;;;;4919764;29;20044;-87
2021/11/24 01:00:59;;;;;;;53.03;28.70;;;;;;;;;;4921191;29;20438;-86
2021/11/24 01:03:26;;;;;;;50.63;27.60;;;;;;;;;;4921391;29;20044;-88
2021/11/24 01:05:52;;;;;;;56.17;29.52;;;;;;;;;;4921419;29;20050;-87
2021/11/24 01:08:18;;;;;;;52.72;29.92;;;;;;;;;;4920237;29;20032;-89
2021/11/24 01:10:45;;;;;;;51.03;27.55;;;;;;;;;;4921574;29;20288;-88
2021/11/24 01:13:20;;;;;;;46.85;26.10;;;;;;;;;;4906649;29;20339;-88
2021/11/24 01:15:46;;;;;;;46.58;26.92;;;;;;;;;;4910408;29;20040;-88
2021/11/24 01:18:13;;;;;;;46.75;26.05;;;;;;;;;;4927325;29;20111;-88
2021/11/24 01:20:39;;;;;;;44.58;25.40;;;;;;;;;;4927809;29;20074;-89
2021/11/24 01:23:06;;;;;;;45.85;25.45;;;;;;;;;;4927510;29;20419;-89
2021/11/24 01:25:32;;;;;;;45.38;24.60;;;;;;;;;;4927248;29;20032;-88
2021/11/24 01:27:58;;;;;;;40.88;25.08;;;;;;;;;;4927477;29;20080;-88
2021/11/24 01:30:24;;;;;;;41.08;24.30;;;;;;;;;;4927556;29;20107;-88
2021/11/24 01:32:51;;;;;;;39.42;24.40;;;;;;;;;;4927291;29;20063;-88
2021/11/24 01:35:17;;;;;;;40.08;23.80;;;;;;;;;;4926433;29;20024;-88
2021/11/24 01:37:43;;;;;;;44.60;24.70;;;;;;;;;;4910739;29;20028;-88
2021/11/24 01:40:10;;;;;;;38.33;23.42;;;;;;;;;;4910591;29;20032;-87
2021/11/24 01:42:37;;;;;;;39.35;22.50;;;;;;;;;;4910438;29;20032;-87
2021/11/24 01:45:04;;;;;;;39.47;23.75;;;;;;;;;;4927305;29;20024;-87
2021/11/24 01:47:30;;;;;;;38.35;22.60;;;;;;;;;;4927101;29;20035;-88
2021/11/24 01:49:56;;;;;;;47.20;27.67;;;;;;;;;;4926310;29;20084;-87
2021/11/24 01:52:22;;;;;;;53.20;30.33;;;;;;;;;;4926092;29;20122;-88
2021/11/24 01:54:48;;;;;;;55.17;30.42;;;;;;;;;;4927209;29;20028;-87
2021/11/24 01:57:18;;;;;;;51.88;29.42;;;;;;;;;;4926957;29;20028;-87
2021/11/24 01:59:46;;;;;;;59.55;32.17;;;;;;;;;;4926961;29;20051;-88
2021/11/24 02:02:12;;;;;;;76.90;38.63;;;;;;;;;;4926164;29;20032;-87
2021/11/24 02:04:38;;;;;;;74.82;37.53;;;;;;;;;;4926959;29;20126;-88
2021/11/24 02:07:04;;;;;;;59.50;32.05;;;;;;;;;;4927352;29;20293;-87
2021/11/24 02:09:30;;;;;;;48.17;27.17;;;;;;;;;;4925912;29;20039;-87
2021/11/24 02:11:57;;;;;;;51.45;28.38;;;;;;;;;;4909926;29;20076;-87
2021/11/24 02:18:00;;;;;;;55.90;30.63;;;;;;;;;;4902602;29;20451;-88
2021/11/24 02:20:38;;;;;;;56.30;32.03;;;;;;;;;;4888432;29;20052;-87
2021/11/24 02:23:05;;;;;;;56.15;31.33;;;;;;;;;;4889201;29;20417;-88
2021/11/24 02:25:31;;;;;;;53.65;29.50;;;;;;;;;;4884949;29;20067;-89
2021/11/24 02:27:57;;;;;;;53.33;28.52;;;;;;;;;;4885157;29;20047;-88
2021/11/24 02:30:24;;;;;;;52.58;29.00;;;;;;;;;;4885401;29;20021;-88
2021/11/24 02:32:50;;;;;;;52.25;29.00;;;;;;;;;;4885153;29;20052;-88
2021/11/24 02:35:16;;;;;;;47.92;28.13;;;;;;;;;;4885408;29;20037;-88
2021/11/24 02:37:42;;;;;;;50.63;28.80;;;;;;;;;;4886486;29;20029;-89
2021/11/24 02:40:08;;;;;;;50.03;27.48;;;;;;;;;;4886163;29;20073;-88
2021/11/24 02:42:37;;;;;;;45.72;27.60;;;;;;;;;;4885886;29;20029;-88
2021/11/24 02:48:06;;;;;;;49.90;28.25;;;;;;;;;;4885353;29;20047;-87
2021/11/24 02:50:32;;;;;;;41.15;25.85;;;;;;;;;;4884957;29;20417;-86
2021/11/24 02:52:59;;;;;;;47.78;27.05;;;;;;;;;;4884958;29;20048;-88
2021/11/24 02:55:25;;;;;;;42.20;25.67;;;;;;;;;;4884888;29;20324;-88
2021/11/24 02:57:52;;;;;;;45.90;26.60;;;;;;;;;;4886151;29;20028;-88
2021/11/24 03:03:22;;;;;;;39.72;25.40;;;;;;;;;;4885603;29;20410;-88
2021/11/24 03:05:48;;;;;;;37.58;23.92;;;;;;;;;;4884546;29;20040;-87
2021/11/24 03:08:31;;;;;;;43.58;26.42;;;;;;;;;;5094965;28;20367;-88
2021/11/24 03:10:57;;;;;;;45.10;26.40;;;;;;;;;;5093081;28;20033;-89
2021/11/24 03:13:23;;;;;;;44.33;25.67;;;;;;;;;;5074992;28;20063;-88
2021/11/24 03:15:49;;;;;;;44.58;27.05;;;;;;;;;;5085302;28;20017;-88
2021/11/24 03:18:15;;;;;;;43.22;25.25;;;;;;;;;;5055051;28;20029;-88
2021/11/24 03:20:41;;;;;;;43.13;24.45;;;;;;;;;;5089069;28;20027;-89
2021/11/24 03:23:07;;;;;;;44.25;27.08;;;;;;;;;;5074626;28;20121;-88
2021/11/24 03:25:34;;;;;;;60.20;33.63;;;;;;;;;;5077327;28;20280;-88
2021/11/24 03:28:01;;;;;;;59.95;33.40;;;;;;;;;;5086437;28;20032;-88
2021/11/24 03:30:28;;;;;;;60.80;32.65;;;;;;;;;;5075044;28;20020;-89
2021/11/24 03:32:55;;;;;;;57.90;32.33;;;;;;;;;;5074566;28;20481;-88
2021/11/24 03:35:23;;;;;;;50.70;29.58;;;;;;;;;;5090751;28;20025;-89
2021/11/24 03:37:51;;;;;;;57.50;33.08;;;;;;;;;;5094738;28;20025;-88
2021/11/24 03:40:18;;;;;;;57.65;32.72;;;;;;;;;;5079448;28;20031;-88
2021/11/24 03:42:46;;;;;;;60.08;34.60;;;;;;;;;;5092338;28;20099;-89
2021/11/24 03:45:13;;;;;;;57.65;32.60;;;;;;;;;;5091541;28;20544;-88
2021/11/24 03:47:39;;;;;;;60.65;33.25;;;;;;;;;;5093642;28;20032;-88
2021/11/24 03:50:06;;;;;;;52.78;31.48;;;;;;;;;;5076902;28;20033;-88
2021/11/24 03:52:32;;;;;;;51.50;30.85;;;;;;;;;;5074389;28;20043;-88
2021/11/24 03:55:01;;;;;;;52.05;30.40;;;;;;;;;;5074266;28;20021;-88
2021/11/24 03:57:27;;;;;;;52.05;30.40;;;;;;;;;;5077044;28;20024;-88
2021/11/24 04:02:56;;;;;;;48.10;29.48;;;;;;;;;;5092895;28;20031;-87
2021/11/24 04:05:23;;;;;;;51.83;28.58;;;;;;;;;;5093920;28;20032;-88
2021/11/24 04:07:49;;;;;;;53.33;30.95;;;;;;;;;;5092956;28;20052;-87
2021/11/24 04:10:16;;;;;;;57.10;31.20;;;;;;;;;;5093653;28;20028;-88
2021/11/24 04:12:42;;;;;;;50.78;31.63;;;;;;;;;;5092942;28;20036;-87
2021/11/24 04:18:12;;;;;;;56.58;30.25;;;;;;;;;;5076308;28;20091;-88
2021/11/24 04:20:38;;;;;;;52.92;30.42;;;;;;;;;;5060678;28;20025;-89
2021/11/24 04:23:04;;;;;;;61.33;33.53;;;;;;;;;;5059410;28;20311;-89
2021/11/24 04:25:30;;;;;;;62.22;34.75;;;;;;;;;;5067905;28;20036;-90
2021/11/24 04:27:56;;;;;;;68.07;37.75;;;;;;;;;;5080299;28;20052;-89
2021/11/24 04:30:23;;;;;;;64.03;34.83;;;;;;;;;;5080244;28;20062;-89
2021/11/24 04:32:51;;;;;;;67.78;35.63;;;;;;;;;;5080438;28;20021;-89
2021/11/24 04:35:17;;;;;;;60.65;34.33;;;;;;;;;;5080207;28;20403;-90
2021/11/24 04:37:43;;;;;;;66.00;35.50;;;;;;;;;;5073256;28;20045;-90
2021/11/24 04:40:09;;;;;;;60.92;36.10;;;;;;;;;;5072966;28;20028;-91
2021/11/24 04:42:38;;;;;;;63.50;35.67;;;;;;;;;;5065350;28;20032;-90
2021/11/24 04:45:04;;;;;;;87.45;42.28;;;;;;;;;;5060232;28;20096;-89
2021/11/24 04:47:30;;;;;;;71.47;38.45;;;;;;;;;;5060134;28;20036;-89
2021/11/24 04:49:56;;;;;;;71.57;36.97;;;;;;;;;;5060061;28;20029;-89
2021/11/24 04:52:22;;;;;;;68.07;34.83;;;;;;;;;;5064198;28;20032;-89
2021/11/24 04:54:48;;;;;;;60.53;35.83;;;;;;;;;;5068663;28;20040;-89
2021/11/24 04:57:14;;;;;;;60.70;33.45;;;;;;;;;;5059628;28;20029;-89
2021/11/24 04:59:42;;;;;;;63.00;33.45;;;;;;;;;;5064254;28;20027;-90
2021/11/24 05:02:08;;;;;;;61.78;33.08;;;;;;;;;;5079502;28;20425;-88
2021/11/24 05:04:34;;;;;;;62.30;32.13;;;;;;;;;;5072226;28;20033;-88
2021/11/24 05:07:00;;;;;;;57.05;31.17;;;;;;;;;;5059783;28;20049;-88
2021/11/24 05:09:26;;;;;;;49.10;29.05;;;;;;;;;;5058684;28;20024;-88
2021/11/24 05:11:53;;;;;;;47.13;28.75;;;;;;;;;;5059218;28;20033;-88
2021/11/24 05:17:43;;;;;;;47.78;27.48;;;;;;;;;;5064474;28;20054;-89
2021/11/24 05:20:09;;;;;;;50.58;26.80;;;;;;;;;;5077932;28;20037;-88
2021/11/24 05:22:35;;;;;;;48.35;27.15;;;;;;;;;;5079547;28;20024;-89
2021/11/24 05:25:02;;;;;;;53.75;25.92;;;;;;;;;;5078280;28;20019;-89
2021/11/24 05:27:28;;;;;;;53.55;24.98;;;;;;;;;;5074514;28;20326;-89
2021/11/24 05:33:16;;;;;;;50.33;25.50;;;;;;;;;;5079055;28;20031;-88
2021/11/24 05:35:42;;;;;;;44.00;24.85;;;;;;;;;;5079245;28;20070;-88
2021/11/24 05:38:08;;;;;;;46.88;26.48;;;;;;;;;;5067927;28;20078;-88
2021/11/24 05:40:35;;;;;;;61.92;32.95;;;;;;;;;;5059072;28;20021;-88
2021/11/24 05:43:01;;;;;;;64.60;38.35;;;;;;;;;;5059131;28;20021;-88
2021/11/24 05:45:34;;;;;;;89.05;48.40;;;;;;;;;;5058776;28;20028;-87
2021/11/24 05:48:08;;;;;;;102.22;59.67;;;;;;;;;;5077685;28;20102;-89
2021/11/24 05:50:34;;;;;;;137.88;74.30;;;;;;;;;;5077848;28;20028;-89
2021/11/24 05:53:00;;;;;;;155.95;78.13;;;;;;;;;;5076933;28;20094;-90
2021/11/24 05:55:26;;;;;;;158.48;77.22;;;;;;;;;;5071728;28;20419;-89
2021/11/24 05:57:52;;;;;;;167.73;86.45;;;;;;;;;;5058662;28;20054;-89
2021/11/24 06:00:46;;;;;;;228.13;102.05;;;;;;;;;;5058304;28;20070;-88
2021/11/24 06:03:12;;;;;;;211.45;89.60;;;;;;;;;;5058401;28;20025;-88
2021/11/24 06:05:39;;;;;;;182.93;80.22;;;;;;;;;;5060119;28;20039;-89
2021/11/24 06:08:05;;;;;;;205.77;88.88;;;;;;;;;;5056838;28;20049;-88
2021/11/24 06:10:31;;;;;;;185.00;78.65;;;;;;;;;;5058716;28;20041;-90
2021/11/24 06:12:57;;;;;;;156.55;68.35;;;;;;;;;;5058687;28;20315;-88
2021/11/24 06:18:27;;;;;;;130.27;65.88;;;;;;;;;;5060964;28;20124;-88
2021/11/24 06:20:53;;;;;;;122.85;57.67;;;;;;;;;;5065422;28;20078;-89
2021/11/24 06:23:19;;;;;;;99.60;53.25;;;;;;;;;;5078494;28;20031;-89
2021/11/24 06:25:45;;;;;;;89.72;45.08;;;;;;;;;;5077973;28;20032;-88
2021/11/24 06:28:12;;;;;;;89.55;44.38;;;;;;;;;;5067018;28;20308;-89
2021/11/24 06:33:42;;;;;;;82.57;44.03;;;;;;;;;;5058076;28;20027;-88
2021/11/24 06:36:08;;;;;;;77.15;38.20;;;;;;;;;;5068376;28;20063;-87
2021/11/24 06:38:34;;;;;;;70.25;39.22;;;;;;;;;;5062994;28;20033;-88
2021/11/24 06:41:01;;;;;;;61.85;37.13;;;;;;;;;;5077207;28;20028;-88
2021/11/24 06:43:28;;;;;;;77.22;42.80;;;;;;;;;;5076811;28;20433;-89
2021/11/24 06:46:12;;;;;;;70.05;39.58;;;;;;;;;;5075128;28;20027;-87
2021/11/24 06:48:38;;;;;;;70.68;37.45;;;;;;;;;;5057786;28;20111;-89
2021/11/24 06:51:04;;;;;;;74.35;41.25;;;;;;;;;;5056688;28;20354;-89
2021/11/24 06:53:30;;;;;;;66.32;37.90;;;;;;;;;;5057459;28;20025;-89
2021/11/24 06:55:56;;;;;;;71.97;46.20;;;;;;;;;;5056602;28;20128;-89
2021/11/24 06:58:22;;;;;;;98.45;53.65;;;;;;;;;;5057550;28;20411;-89
2021/11/24 07:00:49;;;;;;;75.43;42.63;;;;;;;;;;5056706;28;20036;-89
2021/11/24 07:03:15;;;;;;;70.90;39.00;;;;;;;;;;5056584;28;20032;-89
2021/11/24 07:05:41;;;;;;;67.38;38.53;;;;;;;;;;5056495;28;20033;-89
2021/11/24 07:08:07;;;;;;;86.57;41.88;;;;;;;;;;5057087;28;20045;-89
2021/11/24 07:10:33;;;;;;;95.28;48.83;;;;;;;;;;5056658;28;20029;-89
2021/11/24 07:12:59;;;;;;;105.60;53.00;;;;;;;;;;5057435;28;20037;-89
2021/11/24 07:15:26;;;;;;;83.53;44.55;;;;;;;;;;5057395;28;20021;-89
2021/11/24 07:17:52;;;;;;;71.05;41.00;;;;;;;;;;5056410;28;20033;-89
2021/11/24 07:20:18;;;;;;;72.75;40.92;;;;;;;;;;5057817;28;20025;-90
2021/11/24 07:22:45;;;;;;;64.38;36.38;;;;;;;;;;5057709;28;20036;-88
2021/11/24 07:25:11;;;;;;;62.45;37.05;;;;;;;;;;5056373;28;20037;-89
2021/11/24 07:27:37;;;;;;;72.82;41.00;;;;;;;;;;5057473;28;20331;-89
2021/11/24 07:30:04;;;;;;;70.15;40.13;;;;;;;;;;5057624;28;20032;-89
2021/11/24 07:32:30;;;;;;;71.10;36.60;;;;;;;;;;5056279;28;20037;-88
2021/11/24 07:34:57;;;;;;;76.60;39.20;;;;;;;;;;5057514;28;20045;-89
2021/11/24 07:37:23;;;;;;;92.50;42.22;;;;;;;;;;5056967;28;20037;-88
2021/11/24 07:39:49;;;;;;;88.00;43.10;;;;;;;;;;5057199;28;20017;-89
2021/11/24 07:42:15;;;;;;;88.47;38.95;;;;;;;;;;5057634;28;20024;-88
2021/11/24 07:44:41;;;;;;;69.90;37.53;;;;;;;;;;5056339;28;20037;-88
2021/11/24 07:47:44;;;;;;;80.85;38.08;;;;;;;;;;5074601;28;20095;-89
2021/11/24 07:50:10;;;;;;;68.45;35.92;;;;;;;;;;5077173;28;20020;-89
2021/11/24 07:52:36;;;;;;;70.75;35.60;;;;;;;;;;5076273;28;20040;-89
2021/11/24 07:55:03;;;;;;;59.88;36.20;;;;;;;;;;5079146;28;20027;-89
2021/11/24 07:57:29;;;;;;;75.85;37.90;;;;;;;;;;5079984;28;20028;-89
2021/11/24 07:59:56;;;;;;;97.38;48.47;;;;;;;;;;5080821;28;20021;-89
2021/11/24 08:02:23;;;;;;;96.97;60.97;;;;;;;;;;5081055;28;20025;-88
2021/11/24 08:04:49;;;;;;;87.65;49.38;;;;;;;;;;5080015;28;20023;-88
2021/11/24 08:07:15;;;;;;;89.82;48.17;;;;;;;;;;5079512;28;20060;-88
2021/11/24 08:09:41;;;;;;;96.15;51.40;;;;;;;;;;5080860;28;20029;-88
2021/11/24 08:12:07;;;;;;;96.20;52.33;;;;;;;;;;5067385;28;20040;-89
2021/11/24 08:14:33;;;;;;;106.57;54.75;;;;;;;;;;5060872;28;20048;-89
2021/11/24 08:23:07;;;;;;;101.00;52.08;;;;;;;;;;5060518;28;20021;-87
2021/11/24 08:25:33;;;;;;;90.63;50.30;;;;;;;;;;5060680;28;20041;-88
2021/11/24 08:28:00;;;;;;;94.80;51.72;;;;;;;;;;5060693;28;20036;-89
2021/11/24 08:30:26;;;;;;;82.30;46.42;;;;;;;;;;5060079;28;20036;-88
2021/11/24 08:32:53;;;;;;;76.13;42.47;;;;;;;;;;5059902;28;20078;-94
2021/11/24 08:35:20;;;;;;;56.05;33.95;;;;;;;;;;5059222;28;20056;-93
2021/11/24 08:37:47;;;;;;;57.55;33.72;;;;;;;;;;5078130;28;20033;-92
2021/11/24 08:40:13;;;;;;;61.67;34.60;;;;;;;;;;5079204;28;20029;-91
2021/11/24 08:42:40;;;;;;;53.22;31.20;;;;;;;;;;5079984;28;20054;-92
2021/11/24 08:50:55;;;;;;;60.00;33.05;;;;;;;;;;5079977;28;20024;-91
2021/11/24 08:53:22;;;;;;;56.85;31.33;;;;;;;;;;5078746;28;20032;-92
2021/11/24 08:55:48;;;;;;;48.88;30.95;;;;;;;;;;5079823;28;20052;-91
2021/11/24 08:58:15;;;;;;;47.67;28.83;;;;;;;;;;5064443;28;20025;-91
2021/11/24 09:00:41;;;;;;;59.25;26.42;;;;;;;;;;5058721;28;20028;-91
2021/11/24 09:03:10;;;;;;;54.50;25.25;;;;;;;;;;5059853;28;20028;-91
2021/11/24 09:05:36;;;;;;;42.30;25.35;;;;;;;;;;5059641;28;20048;-91
2021/11/24 09:08:02;;;;;;;44.05;25.00;;;;;;;;;;5058337;28;20053;-90
2021/11/24 09:10:30;;;;;;;47.13;24.98;;;;;;;;;;5058660;28;20112;-90
2021/11/24 09:12:57;;;;;;;52.75;29.35;;;;;;;;;;5059552;28;20025;-92
2021/11/24 09:15:36;;;;;;;59.33;29.70;;;;;;;;;;5074849;28;20430;-94
2021/11/24 09:18:03;;;;;;;47.55;26.30;;;;;;;;;;5058321;28;20438;-92
2021/11/24 09:20:29;;;;;;;46.15;27.80;;;;;;;;;;5059655;28;20025;-93
2021/11/24 09:22:56;;;;;;;52.47;31.20;;;;;;;;;;5058841;28;20021;-92
2021/11/24 09:25:25;;;;;;;45.83;28.65;;;;;;;;;;5053214;22;20072;-92
2021/11/24 09:30:19;;;;;;;42.00;25.58;;;;;;;;;;5039177;28;20070;-91
2021/11/24 09:32:45;;;;;;;41.22;25.65;;;;;;;;;;5039528;28;20174;-90
2021/11/24 09:35:12;;;;;;;38.80;24.17;;;;;;;;;;5038126;28;20040;-90
2021/11/24 09:37:38;;;;;;;34.45;22.75;;;;;;;;;;5037939;28;20757;-91
2021/11/24 09:40:05;;;;;;;33.15;21.17;;;;;;;;;;5037716;28;20033;-90
2021/11/24 09:42:32;;;;;;;35.42;23.23;;;;;;;;;;5038960;28;20025;-93
2021/11/24 09:44:58;;;;;;;36.40;22.33;;;;;;;;;;5038207;28;20029;-92
2021/11/24 09:50:46;;;;;;;32.30;20.65;;;;;;;;;;5038826;28;20028;-93
2021/11/24 09:53:12;;;;;;;34.25;19.00;;;;;;;;;;5038742;28;20116;-94
2021/11/24 09:55:40;;;;;;;33.35;20.08;;;;;;;;;;5058786;28;20024;-91
2021/11/24 09:58:06;;;;;;;38.65;19.00;;;;;;;;;;5057716;28;20079;-92
2021/11/24 10:00:33;;;;;;;35.25;19.02;;;;;;;;;;5057715;28;20043;-92
2021/11/24 10:06:40;;;;;;;28.48;18.65;;;;;;;;;;5058697;28;20028;-91
2021/11/24 10:09:11;;;;;;;30.02;18.55;;;;;;;;;;5058316;28;20021;-91
2021/11/24 10:11:37;;;;;;;35.38;19.92;;;;;;;;;;5058867;28;20080;-96
2021/11/24 10:14:03;;;;;;;35.55;21.73;;;;;;;;;;5057570;28;20037;-88
2021/11/24 10:16:31;;;;;;;33.35;20.48;;;;;;;;;;5058131;28;20032;-90
2021/11/24 10:19:15;;;;;;;33.67;19.58;;;;;;;;;;5058522;28;20019;-89
2021/11/24 10:21:53;;;;;;;27.48;18.83;;;;;;;;;;5057278;28;20435;-90
2021/11/24 10:24:26;;;;;;;28.25;18.52;;;;;;;;;;5057131;28;20049;-90
2021/11/24 10:26:52;;;;;;;28.73;18.67;;;;;;;;;;5057136;28;20033;-91
2021/11/24 10:29:19;;;;;;;31.02;19.42;;;;;;;;;;5058326;28;20342;-89
2021/11/24 10:31:50;;;;;;;27.30;16.80;;;;;;;;;;5058302;28;20307;-89
2021/11/24 10:34:29;;;;;;;43.53;20.42;;;;;;;;;;5057048;28;20036;-92
2021/11/24 10:37:06;;;;;;;40.47;21.65;;;;;;;;;;5056827;28;20052;-90
2021/11/24 10:39:36;;;;;;;38.20;18.83;;;;;;;;;;5058277;28;20033;-89
2021/11/24 10:42:13;;;;;;;34.30;20.00;;;;;;;;;;5057819;28;20051;-90
2021/11/24 10:44:42;;;;;;;28.27;19.33;;;;;;;;;;5058140;28;20021;-91
2021/11/24 10:47:08;;;;;;;33.08;19.38;;;;;;;;;;5057969;28;20029;-91
2021/11/24 10:49:40;;;;;;;28.95;17.77;;;;;;;;;;5056872;28;20033;-92
2021/11/24 10:52:12;;;;;;;29.05;17.65;;;;;;;;;;5056905;28;20025;-90
2021/11/24 10:54:38;;;;;;;31.60;18.02;;;;;;;;;;5057631;28;20041;-90
2021/11/24 10:57:14;;;;;;;26.95;18.25;;;;;;;;;;5056328;28;20065;-91
2021/11/24 10:59:41;;;;;;;29.08;19.25;;;;;;;;;;5056871;28;20064;-89
2021/11/24 11:02:16;;;;;;;24.30;15.45;;;;;;;;;;5056664;28;20387;-90
2021/11/24 11:05:01;;;;;;;27.67;15.57;;;;;;;;;;5057869;28;20311;-89
2021/11/24 11:07:31;;;;;;;25.75;15.55;;;;;;;;;;5057753;28;20310;-91
2021/11/24 11:10:08;;;;;;;37.85;15.70;;;;;;;;;;5056432;28;20033;-90
2021/11/24 11:12:35;;;;;;;27.15;16.15;;;;;;;;;;5057470;28;20021;-90
2021/11/24 11:15:19;;;;;;;19.42;13.73;;;;;;;;;;5056601;28;20070;-90
2021/11/24 11:20:51;;;;;;;23.17;15.77;;;;;;;;;;5057630;28;20115;-90
2021/11/24 11:23:17;;;;;;;27.60;17.33;;;;;;;;;;5057252;28;20411;-89
2021/11/24 11:25:45;;;;;;;30.60;16.45;;;;;;;;;;5057247;28;20045;-89
2021/11/24 11:28:12;;;;;;;24.30;15.73;;;;;;;;;;5056734;28;20033;-90
2021/11/24 11:30:39;;;;;;;28.27;17.45;;;;;;;;;;5060439;28;20043;-89
2021/11/24 11:33:05;;;;;;;23.92;15.98;;;;;;;;;;5061440;28;20327;-90
2021/11/24 11:35:31;;;;;;;28.60;16.55;;;;;;;;;;5060376;28;20074;-91
2021/11/24 11:37:57;;;;;;;24.17;16.50;;;;;;;;;;5061335;28;20412;-90
2021/11/24 11:40:24;;;;;;;25.17;16.85;;;;;;;;;;5059967;28;20418;-89
2021/11/24 11:42:50;;;;;;;25.48;15.50;;;;;;;;;;5061034;28;20017;-89
2021/11/24 11:45:17;;;;;;;31.17;19.08;;;;;;;;;;5061404;28;20025;-88
2021/11/24 11:50:47;;;;;;;26.13;17.63;;;;;;;;;;5061362;28;20066;-89
2021/11/24 11:53:17;;;;;;;23.13;15.73;;;;;;;;;;5060958;28;20025;-88
2021/11/24 11:55:43;;;;;;;22.80;16.25;;;;;;;;;;5061146;28;20033;-89
2021/11/24 11:58:36;;;;;;;24.08;15.73;;;;;;;;;;5059698;28;20037;-89
2021/11/24 12:01:39;;;;;;;27.02;16.15;;;;;;;;;;5058682;28;20036;-89
2021/11/24 12:04:15;;;;;;;31.02;18.52;;;;;;;;;;5059923;28;20040;-88
2021/11/24 12:06:42;;;;;;;28.80;17.85;;;;;;;;;;5059689;28;20025;-88
2021/11/24 12:09:08;;;;;;;32.40;21.08;;;;;;;;;;5060535;28;20108;-87
2021/11/24 12:11:52;;;;;;;30.40;17.45;;;;;;;;;;5060711;28;20057;-89
2021/11/24 12:14:37;;;;;;;29.70;16.08;;;;;;;;;;5060544;28;20416;-88
2021/11/24 12:17:22;;;;;;;29.40;17.83;;;;;;;;;;5059463;28;20032;-89
2021/11/24 12:19:48;;;;;;;30.80;18.55;;;;;;;;;;5059544;28;20054;-88
2021/11/24 12:22:14;;;;;;;38.33;19.63;;;;;;;;;;5060832;28;20024;-88
2021/11/24 12:24:41;;;;;;;36.92;20.60;;;;;;;;;;5059217;28;20045;-88
2021/11/24 12:27:07;;;;;;;46.03;22.88;;;;;;;;;;5059362;28;20025;-89
2021/11/24 12:29:47;;;;;;;36.53;20.85;;;;;;;;;;5059345;28;20182;-88
2021/11/24 12:32:15;;;;;;;29.50;18.10;;;;;;;;;;5060537;28;20021;-88
2021/11/24 12:34:48;;;;;;;37.58;19.95;;;;;;;;;;5060506;28;20033;-89
2021/11/24 12:37:21;;;;;;;36.97;19.10;;;;;;;;;;5059105;28;20040;-88
2021/11/24 12:39:48;;;;;;;26.42;17.92;;;;;;;;;;5059835;28;20021;-87
2021/11/24 12:42:14;;;;;;;26.38;17.38;;;;;;;;;;5059019;28;20124;-88
2021/11/24 12:44:51;;;;;;;29.17;19.95;;;;;;;;;;5060204;28;20469;-88
2021/11/24 12:47:20;;;;;;;34.28;20.30;;;;;;;;;;5060280;28;20041;-88
2021/11/24 12:49:47;;;;;;;38.10;21.73;;;;;;;;;;5058939;28;20043;-87
2021/11/24 12:52:13;;;;;;;33.42;20.60;;;;;;;;;;5059814;28;20045;-88
2021/11/24 12:54:41;;;;;;;37.58;20.02;;;;;;;;;;5058687;28;20082;-88
2021/11/24 12:57:08;;;;;;;28.80;17.45;;;;;;;;;;5058633;28;20029;-87
2021/11/24 12:59:35;;;;;;;76.18;43.35;;;;;;;;;;5059683;28;20025;-89
2021/11/24 13:02:05;;;;;;;38.15;22.58;;;;;;;;;;5060030;28;20021;-88
2021/11/24 13:04:36;;;;;;;35.28;21.75;;;;;;;;;;5060002;28;20025;-88
2021/11/24 13:07:03;;;;;;;34.40;22.98;;;;;;;;;;5058709;28;20032;-88
2021/11/24 13:09:39;;;;;;;37.95;23.80;;;;;;;;;;5059210;28;20116;-88
2021/11/24 13:12:10;;;;;;;36.80;22.95;;;;;;;;;;5058599;28;20029;-89
2021/11/24 13:14:37;;;;;;;35.22;22.08;;;;;;;;;;5059362;28;20442;-88
2021/11/24 13:17:05;;;;;;;40.20;21.45;;;;;;;;;;5058505;28;20051;-88
2021/11/24 13:19:51;;;;;;;55.10;27.95;;;;;;;;;;5059750;28;20311;-88
2021/11/24 13:22:38;;;;;;;55.13;28.27;;;;;;;;;;5058373;28;20036;-88
2021/11/24 13:25:08;;;;;;;40.00;23.83;;;;;;;;;;5058910;28;20045;-88
2021/11/24 13:27:53;;;;;;;37.38;23.73;;;;;;;;;;5058469;28;20041;-88
2021/11/24 13:30:19;;;;;;;49.03;27.80;;;;;;;;;;5058177;28;20038;-88
2021/11/24 13:32:55;;;;;;;38.70;20.67;;;;;;;;;;5058937;28;20035;-88
2021/11/24 13:35:21;;;;;;;43.40;23.70;;;;;;;;;;5058029;28;20029;-88
2021/11/24 13:37:47;;;;;;;55.00;27.42;;;;;;;;;;5058078;28;20036;-87
2021/11/24 13:40:14;;;;;;;54.88;30.42;;;;;;;;;;5058418;28;20017;-87
2021/11/24 13:42:40;;;;;;;41.55;24.35;;;;;;;;;;5058949;28;20029;-88
2021/11/24 13:45:09;;;;;;;36.08;21.45;;;;;;;;;;5057906;28;20029;-88
2021/11/24 13:50:38;;;;;;;110.55;59.53;;;;;;;;;;5058294;28;20027;-87
2021/11/24 13:53:23;;;;;;;129.85;71.35;;;;;;;;;;5058243;28;20044;-88
2021/11/24 13:56:13;;;;;;;87.18;51.65;;;;;;;;;;5057658;28;20053;-88
2021/11/24 13:58:40;;;;;;;48.75;30.13;;;;;;;;;;5000692;28;20038;-87
2021/11/24 14:01:13;;;;;;;75.25;32.67;;;;;;;;;;5000426;28;20328;-87
2021/11/24 14:04:01;;;;;;;75.00;33.17;;;;;;;;;;5016997;28;20034;-88
2021/11/24 14:06:50;;;;;;;52.95;28.40;;;;;;;;;;5017179;28;20042;-88
2021/11/24 14:09:18;;;;;;;50.60;26.73;;;;;;;;;;4978205;28;20427;-88
2021/11/24 14:11:50;;;;;;;46.47;24.70;;;;;;;;;;4961842;28;20070;-88
2021/11/24 14:14:17;;;;;;;43.90;25.23;;;;;;;;;;4978035;28;20041;-88
2021/11/24 14:17:06;;;;;;;39.03;25.63;;;;;;;;;;4961616;28;20031;-88
2021/11/24 14:19:33;;;;;;;36.90;25.27;;;;;;;;;;4961696;28;20026;-87
2021/11/24 14:22:00;;;;;;;39.58;26.10;;;;;;;;;;4961638;28;20035;-88
2021/11/24 14:24:27;;;;;;;46.67;27.33;;;;;;;;;;4961244;28;20122;-89
2021/11/24 14:26:54;;;;;;;78.45;36.20;;;;;;;;;;4961610;28;20194;-91
2021/11/24 14:29:21;;;;;;;99.30;41.78;;;;;;;;;;4961736;28;20066;-91
2021/11/24 14:31:57;;;;;;;81.60;36.83;;;;;;;;;;4977663;28;20037;-92
2021/11/24 14:34:26;;;;;;;59.65;32.75;;;;;;;;;;4977763;28;20055;-94
2021/11/24 14:36:54;;;;;;;50.35;28.80;;;;;;;;;;5036955;28;20059;-92
2021/11/24 14:39:20;;;;;;;42.47;28.42;;;;;;;;;;5036711;28;20113;-91
2021/11/24 14:41:46;;;;;;;48.45;30.85;;;;;;;;;;5036455;28;20419;-92
2021/11/24 14:44:13;;;;;;;48.22;29.95;;;;;;;;;;5037161;28;20033;-90
2021/11/24 14:46:40;;;;;;;50.03;31.40;;;;;;;;;;5050886;28;20037;-94
2021/11/24 14:49:06;;;;;;;50.42;29.65;;;;;;;;;;5058166;28;20032;-91
2021/11/24 14:51:33;;;;;;;58.38;35.03;;;;;;;;;;5057957;28;20029;-90
2021/11/24 14:54:00;;;;;;;65.45;36.15;;;;;;;;;;5057715;28;20103;-88
2021/11/24 14:56:26;;;;;;;64.97;35.47;;;;;;;;;;5057787;28;20017;-90
2021/11/24 14:58:52;;;;;;;57.47;35.08;;;;;;;;;;5057874;28;20039;-90
2021/11/24 15:01:19;;;;;;;62.80;34.75;;;;;;;;;;5056951;28;20318;-92
2021/11/24 15:03:45;;;;;;;72.35;37.38;;;;;;;;;;5056502;28;20403;-92
2021/11/24 15:06:11;;;;;;;75.03;40.70;;;;;;;;;;5057917;28;20021;-90
2021/11/24 15:08:37;;;;;;;87.40;44.88;;;;;;;;;;5058034;28;20055;-94
2021/11/24 15:11:03;;;;;;;99.93;49.78;;;;;;;;;;5057023;28;20029;-89
2021/11/24 15:13:29;;;;;;;104.32;52.05;;;;;;;;;;5057095;28;20028;-94
2021/11/24 15:15:56;;;;;;;94.50;47.35;;;;;;;;;;5057814;28;20045;-94
2021/11/24 15:21:26;;;;;;;70.35;37.40;;;;;;;;;;5058050;28;20036;-92
2021/11/24 15:23:52;;;;;;;68.75;35.88;;;;;;;;;;5056589;28;20033;-93
2021/11/24 15:26:19;;;;;;;65.88;34.70;;;;;;;;;;5057613;28;20028;-92